Terminal Aerodrome Forecast
Issued by NWS Pocatello, ID

Home | Current Version | Previous Version | Text Only | Print | Product List | Glossary On
Versions: 1 2 3 4 5 6 7 8 9 10 11 12 13 14 15 16 17 18 19 20 21 22 23
000
FTUS45 KPIH 281100 AAA
TAFPIH
TAF AMD
KPIH 281149Z 2812/2912 19015G23KT P6SM -SN SCT025 BKN035
      TEMPO 2812/2815 19015KT 2SM -SN BKN025 OVC030
     FM281500 21017KT 2SM -SN BKN008 OVC015
     FM281800 23017G27KT 4SM BLSN SCT008 OVC015
     FM290100 21012KT P6SM -SN BKN008 OVC025=

USA.gov is the U.S. government's official web portal to all federal, state and local government web resources and services.